Cut Bank Municipal Airport
KCTB : now visible

Airfield :











YOU CAN JOIN US ON...

 
LOGIN :

Register | Disclaimer

   EN    FR    IT 

 









Legend :    VFR   Marginal VFR   IFR   Intensive IFR   Very Intensive IFR
Visi :
Ceiling :
>= 8 km
>= 3000ft
5 to 8 km
1000 to 3000 ft
1500m to 5 km
500 to 1000 ft
800 to 1500m
200 to 500 ft
< 800m
< 200 ft
Symbols :   Thunderstorms  Fog  Heavy snow  Heavy precipitations  Wind > 20 kt






- Airport Elevation : 3854 ft


KCTB - Cut Bank Municipal

CURRENT METAR :
  • 070156Z AUTO 00000KT 10SM OVC021 M22/M23 A2986 RMK AO2 SLP207 T12221233

EXPIRED METARs :
  • 070056Z AUTO 11008KT 10SM OVC021 M22/M23 A2985 RMK AO2 SLP202 T12171233
  • 062356Z AUTO 12009KT 8SM OVC024 M21/M23 A2984 RMK AO2 SLP196 60000 T12111228 11200 21211 53004

TAF KCTB
Valid from the 07 at 00:00 until the 08 at 00:00 UTC


062342Z 0700/0724 11012KT P6SM OVC025
FM070700 16013KT P6SM BKN050 WS020/26035KT
FM071000 20015G25KT P6SM SCT250 WS020/26040KT
FM071300 24018G32KT 6SM BLSN SCT250 WS020/27045KT
FM071800 26024G39KT 5SM BLSN FEW250
KZLC FIR / North America



MET'MAP, your aeronautical weather chart ! - Copyright ORBIFLY December 2007 - Disclaimer

ORBIFLY MET'MAP TEAM :

Programming & Development : Alexandra Zaïnal
Original concept : Baudouin d'Aumeries
Technical & hardware support : Manuel Goepfert
Assistance : Marc-Olivier Méhu




SOURCES & CREDITS :

   NOAA       Earth
Advisory